Time;durP1;ratioP1;P1;durP2;ratioP2;P2;SDS_P1;SDS_P2;PMS_P1;PMS_P2;Temp;Humidity;BMP_temperature;BMP_pressure;BME280_temperature;BME280_humidity;BME280_pressure;Samples;Min_cycle;Max_cycle;Signal;HPM_P1;HPM_P2
2022/03/10 00:00:38;;;;;;;24.20;13.30;;;;;;;-5.66;100.00;99788.88;1642861;87;21114;-71
2022/03/10 00:03:05;;;;;;;26.90;14.47;;;;;;;-5.71;100.00;99779.03;1650020;86;21554;-70
2022/03/10 00:05:34;;;;;;;24.77;13.93;;;;;;;-5.72;100.00;99788.72;1649903;86;21541;-71
2022/03/10 00:08:01;;;;;;;25.43;13.63;;;;;;;-5.72;100.00;99777.31;1643080;87;21030;-71
2022/03/10 00:10:28;;;;;;;26.23;13.53;;;;;;;-5.72;100.00;99785.21;1653041;87;21085;-70
2022/03/10 00:12:55;;;;;;;25.63;13.73;;;;;;;-5.75;100.00;99780.11;1644898;87;21582;-70
2022/03/10 00:15:24;;;;;;;25.03;12.37;;;;;;;-5.76;100.00;99790.25;1652275;86;21539;-70
2022/03/10 00:17:51;;;;;;;22.30;12.33;;;;;;;-5.76;100.00;99787.61;1648283;87;21053;-71
2022/03/10 00:20:21;;;;;;;23.67;13.03;;;;;;;-5.80;100.00;99786.91;1675412;85;21057;-71
2022/03/10 00:22:51;;;;;;;22.93;12.37;;;;;;;-5.83;100.00;99792.31;1675927;85;21092;-69
2022/03/10 00:25:18;;;;;;;25.10;13.03;;;;;;;-5.87;100.00;99794.72;1627301;88;21086;-71
2022/03/10 00:27:46;;;;;;;51.23;24.63;;;;;;;-5.96;100.00;99796.03;1605881;88;21114;-71
2022/03/10 00:30:13;;;;;;;36.30;19.37;;;;;;;-5.94;100.00;99807.78;1627194;88;21031;-70
2022/03/10 00:32:43;;;;;;;41.70;22.13;;;;;;;-5.92;100.00;99804.61;1627648;88;21055;-70
2022/03/10 00:35:11;;;;;;;24.50;12.60;;;;;;;-5.88;100.00;99809.27;1631410;88;21523;-71
2022/03/10 00:37:37;;;;;;;26.03;13.77;;;;;;;-5.88;100.00;99803.52;1631535;88;21190;-70
2022/03/10 00:40:06;;;;;;;23.30;12.07;;;;;;;-5.88;100.00;99812.74;1631353;88;21108;-71
2022/03/10 00:42:37;;;;;;;21.73;10.83;;;;;;;-5.85;100.00;99808.66;1631404;88;21022;-70
2022/03/10 00:45:06;;;;;;;19.97;10.67;;;;;;;-5.89;100.00;99816.32;1631779;88;21074;-70
2022/03/10 00:47:34;;;;;;;19.70;11.23;;;;;;;-5.92;100.00;99815.14;1631793;88;21019;-70
2022/03/10 00:50:02;;;;;;;20.87;10.37;;;;;;;-5.93;100.00;99820.88;1631666;88;21046;-70
2022/03/10 00:52:29;;;;;;;19.63;10.37;;;;;;;-5.92;100.00;99830.94;1631239;88;21150;-71
2022/03/10 00:54:56;;;;;;;19.17;9.53;;;;;;;-5.93;100.00;99835.84;1631631;88;21050;-71
2022/03/10 00:57:23;;;;;;;19.80;8.90;;;;;;;-5.96;100.00;99842.58;1631550;88;21547;-71
2022/03/10 00:59:50;;;;;;;19.80;9.17;;;;;;;-6.12;100.00;99848.55;1631299;88;21104;-71
2022/03/10 01:02:17;;;;;;;17.00;8.30;;;;;;;-6.22;100.00;99865.67;1631433;88;21070;-70
2022/03/10 01:04:44;;;;;;;15.73;7.77;;;;;;;-6.29;100.00;99870.82;1631837;88;21559;-71
2022/03/10 01:07:12;;;;;;;15.63;7.83;;;;;;;-6.35;100.00;99888.21;1631710;88;21130;-71
2022/03/10 01:09:39;;;;;;;18.93;9.27;;;;;;;-6.36;100.00;99904.91;1631395;88;21066;-69
2022/03/10 01:12:07;;;;;;;21.90;10.07;;;;;;;-6.37;100.00;99912.43;1631693;88;21524;-70
2022/03/10 01:14:34;;;;;;;19.07;9.33;;;;;;;-6.39;100.00;99911.61;1631587;88;21007;-71
2022/03/10 01:17:02;;;;;;;18.33;9.07;;;;;;;-6.42;100.00;99921.83;1655780;86;21055;-71
2022/03/10 01:19:31;;;;;;;18.50;9.33;;;;;;;-6.54;100.00;99928.46;1663751;86;21092;-71
2022/03/10 01:21:58;;;;;;;17.93;9.10;;;;;;;-6.63;100.00;99934.59;1677281;85;21083;-70
2022/03/10 01:24:25;;;;;;;19.03;9.47;;;;;;;-6.72;100.00;99945.88;1693793;85;20991;-70
2022/03/10 01:26:52;;;;;;;18.97;9.67;;;;;;;-6.84;100.00;99958.22;1693903;85;21381;-71
2022/03/10 01:29:19;;;;;;;19.07;9.43;;;;;;;-6.91;100.00;99956.29;1693982;85;21044;-70
2022/03/10 01:31:47;;;;;;;19.03;10.00;;;;;;;-6.97;100.00;99956.55;1694119;85;21023;-71
2022/03/10 01:34:14;;;;;;;21.57;10.30;;;;;;;-7.00;100.00;99961.93;1700773;84;21062;-70
2022/03/10 01:36:41;;;;;;;18.83;9.33;;;;;;;-7.03;100.00;99961.20;1704771;84;21023;-71
2022/03/10 01:39:08;;;;;;;18.70;9.10;;;;;;;-7.12;100.00;99966.36;1704763;84;21495;-71
2022/03/10 01:41:36;;;;;;;21.27;9.57;;;;;;;-7.27;100.00;99974.41;1680970;84;21540;-70
2022/03/10 01:44:06;;;;;;;18.43;9.33;;;;;;;-7.35;100.00;99976.00;1704597;84;21055;-70
2022/03/10 01:46:33;;;;;;;18.27;8.57;;;;;;;-7.40;100.00;99981.91;1704777;84;21054;-71
2022/03/10 01:49:00;;;;;;;19.17;9.40;;;;;;;-7.44;100.00;99984.23;1704874;84;21075;-71
2022/03/10 01:51:27;;;;;;;18.50;8.77;;;;;;;-7.47;100.00;99982.59;1704663;84;21043;-71
2022/03/10 01:53:55;;;;;;;17.30;8.33;;;;;;;-7.54;100.00;99978.92;1704854;84;21043;-70
2022/03/10 01:56:23;;;;;;;15.90;8.43;;;;;;;-7.59;100.00;99988.78;1704659;84;21039;-70
2022/03/10 01:58:52;;;;;;;17.53;8.20;;;;;;;-7.63;100.00;99990.66;1704984;84;21022;-70
2022/03/10 02:01:20;;;;;;;16.53;7.97;;;;;;;-7.67;100.00;99999.55;1706658;84;21051;-70
2022/03/10 02:03:47;;;;;;;15.20;7.57;;;;;;;-7.70;100.00;100002.28;1705664;84;21034;-71
2022/03/10 02:06:15;;;;;;;16.27;8.00;;;;;;;-7.72;100.00;100002.80;1704385;84;21095;-69
2022/03/10 02:11:28;;;;;;;19.97;8.17;;;;;;;-7.69;100.00;100002.22;1704959;84;21583;-71
2022/03/10 02:13:56;;;;;;;17.73;8.63;;;;;;;-7.67;100.00;100001.70;1705033;84;21019;-69
2022/03/10 02:19:10;;;;;;;17.77;8.03;;;;;;;-7.69;100.00;100002.22;1704770;84;21584;-71
2022/03/10 02:21:38;;;;;;;18.33;7.90;;;;;;;-7.70;100.00;100001.84;1704622;84;21509;-70
2022/03/10 02:24:06;;;;;;;14.73;7.33;;;;;;;-7.71;100.00;100009.31;1704818;84;21027;-71
2022/03/10 02:26:34;;;;;;;15.77;7.17;;;;;;;-7.70;100.00;100012.78;1704713;84;21059;-71
2022/03/10 02:29:01;;;;;;;15.40;7.13;;;;;;;-7.72;100.00;100014.18;1704850;84;21035;-70
2022/03/10 02:31:28;;;;;;;16.20;7.37;;;;;;;-7.71;100.00;100018.50;1704783;84;21560;-70
2022/03/10 02:33:56;;;;;;;13.93;6.70;;;;;;;-7.70;100.00;100010.16;1704730;84;21556;-70
2022/03/10 02:36:24;;;;;;;14.90;6.50;;;;;;;-7.70;100.00;100010.16;1704665;84;21046;-70
2022/03/10 02:38:51;;;;;;;12.17;6.23;;;;;;;-7.73;100.00;100017.70;1704467;84;21114;-70
2022/03/10 02:41:18;;;;;;;15.20;6.83;;;;;;;-7.74;100.00;100026.94;1704456;84;21106;-71
2022/03/10 02:43:46;;;;;;;16.23;7.33;;;;;;;-7.75;100.00;100023.94;1704633;84;21019;-71
2022/03/10 02:46:13;;;;;;;23.60;11.30;;;;;;;-7.73;100.00;100024.27;1704368;84;21095;-71
2022/03/10 02:48:39;;;;;;;19.70;8.30;;;;;;;-7.69;100.00;100022.38;1704817;84;21007;-69
2022/03/10 02:51:07;;;;;;;16.40;7.47;;;;;;;-7.68;100.00;100025.42;1704763;84;21047;-69
2022/03/10 02:53:34;;;;;;;17.00;7.73;;;;;;;-7.67;100.00;100031.91;1704557;84;21043;-70
2022/03/10 02:56:04;;;;;;;17.70;7.90;;;;;;;-7.67;100.00;100037.16;1670436;86;21602;-70
2022/03/10 02:58:31;;;;;;;18.53;8.33;;;;;;;-7.62;100.00;100040.09;1642297;87;21037;-71
2022/03/10 03:00:58;;;;;;;19.53;9.73;;;;;;;-7.63;100.00;100032.68;1691842;84;21037;-71
2022/03/10 03:03:25;;;;;;;29.70;12.90;;;;;;;-7.70;100.00;100040.35;1670804;86;21590;-71
2022/03/10 03:05:52;;;;;;;20.67;10.83;;;;;;;-7.72;100.00;100042.18;1671453;86;21530;-70
2022/03/10 03:08:26;;;;;;;15.33;7.63;;;;;;;-7.79;100.00;100045.51;1687625;85;21098;-70
2022/03/10 03:10:54;;;;;;;19.67;8.03;;;;;;;-7.85;100.00;100044.39;1664295;85;21066;-70
2022/03/10 03:13:21;;;;;;;15.27;6.97;;;;;;;-7.94;100.00;100055.23;1664325;85;21064;-71
2022/03/10 03:15:50;;;;;;;15.20;7.93;;;;;;;-8.07;100.00;100058.74;1687298;85;21605;-70
2022/03/10 03:18:17;;;;;;;16.70;7.17;;;;;;;-8.17;100.00;100075.70;1687135;85;21087;-71
2022/03/10 03:20:44;;;;;;;16.83;7.50;;;;;;;-8.27;100.00;100081.27;1687848;85;21497;-71
2022/03/10 03:23:12;;;;;;;15.13;6.97;;;;;;;-8.34;100.00;100090.68;1687410;85;21071;-69
2022/03/10 03:25:39;;;;;;;16.97;7.90;;;;;;;-8.41;100.00;100090.89;1664270;85;21494;-69
2022/03/10 03:28:06;;;;;;;20.13;9.20;;;;;;;-8.43;100.00;100094.49;1687487;85;21067;-70
2022/03/10 03:30:33;;;;;;;16.00;8.10;;;;;;;-8.43;100.00;100097.11;1687070;85;21032;-71
2022/03/10 03:33:00;;;;;;;13.43;6.50;;;;;;;-8.44;100.00;100102.82;1687758;85;21020;-71
2022/03/10 03:35:27;;;;;;;14.20;6.93;;;;;;;-8.43;100.00;100101.05;1687416;85;21071;-70
2022/03/10 03:37:54;;;;;;;14.90;7.53;;;;;;;-8.46;100.00;100105.95;1687330;85;21055;-70
2022/03/10 03:40:21;;;;;;;16.30;7.03;;;;;;;-8.47;100.00;100097.67;1687349;85;21508;-70
2022/03/10 03:42:49;;;;;;;15.97;7.37;;;;;;;-8.49;100.00;100107.36;1687305;85;21052;-70
2022/03/10 03:45:16;;;;;;;15.90;8.13;;;;;;;-8.52;100.00;100107.45;1687399;85;21020;-71
2022/03/10 03:47:43;;;;;;;13.90;6.53;;;;;;;-8.49;100.00;100117.84;1687338;85;21055;-71
2022/03/10 03:50:11;;;;;;;12.93;6.37;;;;;;;-8.50;100.00;100111.33;1687302;85;21016;-71
2022/03/10 03:52:38;;;;;;;14.87;6.87;;;;;;;-8.55;100.00;100116.74;1690058;85;21047;-71
2022/03/10 03:55:07;;;;;;;14.43;6.60;;;;;;;-8.56;100.00;100116.78;1687544;85;21501;-71
2022/03/10 03:57:34;;;;;;;14.60;6.10;;;;;;;-8.58;100.00;100117.30;1687576;85;21017;-71
2022/03/10 04:00:01;;;;;;;14.97;6.63;;;;;;;-8.60;100.00;100126.05;1687317;85;21064;-71
2022/03/10 04:02:31;;;;;;;16.00;7.70;;;;;;;-8.60;100.00;100130.45;1687391;85;21055;-70
2022/03/10 04:04:58;;;;;;;15.70;7.53;;;;;;;-8.62;100.00;100136.20;1687581;85;21056;-71
2022/03/10 04:07:28;;;;;;;16.10;7.70;;;;;;;-8.61;100.00;100137.89;1687320;85;21115;-71
2022/03/10 04:09:55;;;;;;;15.77;7.97;;;;;;;-8.59;100.00;100129.52;1687490;85;21048;-71
2022/03/10 04:12:22;;;;;;;15.20;6.83;;;;;;;-8.60;100.00;100137.00;1687489;85;21039;-71
2022/03/10 04:14:49;;;;;;;14.40;6.70;;;;;;;-8.64;100.00;100141.91;1687655;85;21596;-70
2022/03/10 04:17:16;;;;;;;15.90;7.97;;;;;;;-8.68;100.00;100142.92;1657254;85;21060;-70
2022/03/10 04:19:43;;;;;;;14.97;6.53;;;;;;;-8.71;100.00;100144.32;1611551;89;21517;-70
2022/03/10 04:22:11;;;;;;;15.80;6.73;;;;;;;-8.76;100.00;100144.48;1652054;87;21581;-71
2022/03/10 04:24:39;;;;;;;13.90;7.03;;;;;;;-8.86;100.00;100156.14;1611304;89;21116;-70
2022/03/10 04:27:06;;;;;;;14.43;6.90;;;;;;;-8.92;100.00;100164.16;1629487;87;21036;-71
2022/03/10 04:29:34;;;;;;;14.23;6.70;;;;;;;-8.97;100.00;100157.30;1611135;89;21088;-70
2022/03/10 04:32:01;;;;;;;13.83;6.70;;;;;;;-8.99;100.00;100157.80;1652160;86;21072;-69
2022/03/10 04:34:28;;;;;;;14.03;6.33;;;;;;;-8.95;100.00;100162.97;1603241;89;21167;-71
2022/03/10 04:36:56;;;;;;;16.17;7.03;;;;;;;-8.97;100.00;100173.03;1649322;87;21034;-71
2022/03/10 04:39:23;;;;;;;12.93;6.30;;;;;;;-8.98;100.00;100179.19;1649664;87;21103;-70
2022/03/10 04:41:52;;;;;;;18.67;7.77;;;;;;;-8.97;100.00;100170.87;1649244;87;21073;-71
2022/03/10 04:44:19;;;;;;;13.17;6.43;;;;;;;-8.98;100.00;100174.38;1624992;87;21060;-70
2022/03/10 04:46:46;;;;;;;13.70;6.60;;;;;;;-8.98;100.00;100176.57;1649283;87;21065;-70
2022/03/10 04:49:13;;;;;;;12.90;6.53;;;;;;;-8.98;100.00;100177.88;1625151;87;21482;-71
2022/03/10 04:51:40;;;;;;;14.03;6.57;;;;;;;-9.02;100.00;100184.55;1603628;87;21116;-71
2022/03/10 04:54:07;;;;;;;15.87;6.73;;;;;;;-9.04;100.00;100189.83;1649498;87;21501;-71
2022/03/10 04:56:34;;;;;;;15.47;6.90;;;;;;;-9.07;100.00;100195.61;1649249;87;21063;-70
2022/03/10 04:59:03;;;;;;;13.83;6.13;;;;;;;-9.07;100.00;100201.70;1625156;87;21012;-71
2022/03/10 05:01:32;;;;;;;13.50;6.47;;;;;;;-9.08;100.00;100201.73;1649208;87;21099;-70
2022/03/10 05:04:00;;;;;;;15.43;6.80;;;;;;;-9.09;100.00;100207.90;1649644;87;21549;-71
2022/03/10 05:06:27;;;;;;;15.20;6.67;;;;;;;-9.09;100.00;100209.20;1649506;87;21068;-71
2022/03/10 05:08:56;;;;;;;13.47;6.27;;;;;;;-9.10;100.00;100210.98;1649238;87;21498;-70
2022/03/10 05:11:23;;;;;;;12.07;6.20;;;;;;;-9.11;100.00;100222.34;1649448;87;21088;-71
2022/03/10 05:13:51;;;;;;;13.87;5.93;;;;;;;-9.16;100.00;100226.39;1649533;86;21032;-70
2022/03/10 05:16:18;;;;;;;16.17;6.93;;;;;;;-9.18;100.00;100226.89;1665362;84;21043;-71
2022/03/10 05:18:45;;;;;;;13.27;6.50;;;;;;;-9.13;100.00;100228.55;1684638;85;21537;-70
2022/03/10 05:21:14;;;;;;;14.90;6.30;;;;;;;-9.05;100.00;100227.41;1684786;85;21068;-70
2022/03/10 05:23:42;;;;;;;13.03;6.40;;;;;;;-9.02;100.00;100239.11;1659340;85;21067;-70
2022/03/10 05:26:09;;;;;;;17.23;7.00;;;;;;;-8.96;100.00;100240.70;1684457;85;21102;-71
2022/03/10 05:28:36;;;;;;;16.23;8.10;;;;;;;-8.88;100.00;100243.13;1684567;85;21131;-71
2022/03/10 05:31:03;;;;;;;13.77;6.87;;;;;;;-8.81;100.00;100243.36;1659171;85;21079;-70
2022/03/10 05:33:30;;;;;;;13.70;6.27;;;;;;;-8.76;100.00;100251.06;1659238;85;21028;-71
2022/03/10 05:35:57;;;;;;;15.20;6.57;;;;;;;-8.75;100.00;100250.18;1684655;85;21537;-70
2022/03/10 05:38:24;;;;;;;19.50;7.87;;;;;;;-8.71;100.00;100257.92;1684612;85;21080;-69
2022/03/10 05:40:51;;;;;;;15.70;6.87;;;;;;;-8.61;100.00;100266.37;1659724;85;21040;-71
2022/03/10 05:43:18;;;;;;;13.70;6.23;;;;;;;-8.54;100.00;100270.53;1686394;85;21074;-70
2022/03/10 05:45:45;;;;;;;12.37;6.40;;;;;;;-8.44;100.00;100273.30;1684523;85;21092;-70
2022/03/10 05:48:12;;;;;;;15.00;6.17;;;;;;;-8.34;100.00;100275.61;1684740;85;21513;-71
2022/03/10 05:50:40;;;;;;;16.60;7.10;;;;;;;-8.30;100.00;100282.50;1659262;85;21055;-70
2022/03/10 05:53:07;;;;;;;17.43;7.33;;;;;;;-8.28;100.00;100280.22;1684542;85;21071;-70
2022/03/10 05:55:35;;;;;;;15.37;7.30;;;;;;;-8.22;100.00;100287.89;1684313;84;21040;-70
2022/03/10 05:58:02;;;;;;;27.77;13.70;;;;;;;-8.15;100.00;100296.45;1684384;85;21123;-70
2022/03/10 06:00:30;;;;;;;14.97;7.53;;;;;;;-8.05;100.00;100296.58;1692184;85;21072;-70
2022/03/10 06:02:57;;;;;;;17.03;7.23;;;;;;;-7.95;100.00;100294.97;1664923;85;21031;-69
2022/03/10 06:05:24;;;;;;;20.90;8.80;;;;;;;-7.87;100.00;100300.39;1692166;84;21529;-69
2022/03/10 06:07:52;;;;;;;18.60;9.50;;;;;;;-7.88;100.00;100313.56;1692278;84;21088;-70
2022/03/10 06:10:19;;;;;;;25.63;12.77;;;;;;;-7.95;100.00;100320.79;1692277;84;21044;-71
2022/03/10 06:12:48;;;;;;;22.93;11.03;;;;;;;-7.90;100.00;100331.98;1692074;85;21095;-70
2022/03/10 06:15:17;;;;;;;18.53;8.40;;;;;;;-7.78;100.00;100331.22;1690928;85;21072;-71
2022/03/10 06:17:44;;;;;;;21.27;9.47;;;;;;;-7.79;100.00;100341.30;1658576;86;21617;-70
2022/03/10 06:20:11;;;;;;;16.23;7.90;;;;;;;-7.79;100.00;100352.68;1631806;86;21612;-71
2022/03/10 06:22:40;;;;;;;27.90;11.63;;;;;;;-7.72;100.00;100353.33;1658564;86;21075;-71
2022/03/10 06:25:09;;;;;;;28.70;13.67;;;;;;;-7.58;100.00;100349.81;1617059;89;21103;-72
2022/03/10 06:27:37;;;;;;;18.87;8.13;;;;;;;-7.54;100.00;100351.45;1649450;87;21593;-71
2022/03/10 06:30:10;;;;;;;17.40;9.23;;;;;;;-7.45;100.00;100359.03;1623982;87;21557;-69
2022/03/10 06:32:37;;;;;;;20.40;7.30;;;;;;;-7.32;100.00;100363.42;1648988;87;21005;-71
2022/03/10 06:35:05;;;;;;;14.13;6.43;;;;;;;-7.16;100.00;100365.56;1625322;86;21060;-71
2022/03/10 06:37:33;;;;;;;13.33;6.63;;;;;;;-7.04;100.00;100359.05;1652134;87;20992;-69
2022/03/10 06:40:02;;;;;;;14.33;6.77;;;;;;;-7.02;100.00;100369.05;1648427;86;21110;-69
2022/03/10 06:42:31;;;;;;;20.87;9.37;;;;;;;-6.99;100.00;100371.11;1641439;87;21058;-68
2022/03/10 06:44:58;;;;;;;24.23;11.53;;;;;;;-6.92;100.00;100379.66;1636439;87;21471;-70
2022/03/10 06:47:24;;;;;;;19.40;10.30;;;;;;;-6.83;100.00;100381.09;1626237;87;21623;-70
2022/03/10 06:49:52;;;;;;;20.07;9.00;;;;;;;-6.75;100.00;100383.02;1634242;87;21084;-71
2022/03/10 06:52:20;;;;;;;15.73;7.03;;;;;;;-6.61;100.00;100386.48;1634691;87;21062;-70
2022/03/10 06:54:47;;;;;;;20.17;8.63;;;;;;;-6.54;100.00;100387.98;1624712;87;21571;-68
2022/03/10 06:57:14;;;;;;;38.77;16.17;;;;;;;-6.50;100.00;100390.90;1633654;87;21108;-70
2022/03/10 06:59:41;;;;;;;33.17;14.20;;;;;;;-6.38;100.00;100394.41;1638570;87;21033;-71
2022/03/10 07:02:09;;;;;;;21.40;9.07;;;;;;;-6.38;100.00;100405.41;1639472;87;21007;-71
2022/03/10 07:04:37;;;;;;;25.83;11.57;;;;;;;-6.44;100.00;100411.75;1624888;87;21530;-71
2022/03/10 07:07:04;;;;;;;17.23;7.13;;;;;;;-6.42;100.00;100411.70;1654863;85;21006;-71
2022/03/10 07:09:31;;;;;;;17.97;7.23;;;;;;;-6.54;100.00;100423.03;1639525;87;21025;-70
2022/03/10 07:12:00;;;;;;;14.30;6.40;;;;;;;-6.49;100.00;100425.05;1639466;87;21060;-72
2022/03/10 07:14:27;;;;;;;12.97;6.57;;;;;;;-6.42;100.00;100422.22;1635546;87;21463;-70
2022/03/10 07:16:55;;;;;;;17.37;7.20;;;;;;;-6.40;100.00;100425.66;1639904;86;21027;-71
2022/03/10 07:19:22;;;;;;;16.20;6.67;;;;;;;-6.25;100.00;100425.12;1631236;87;21080;-70
2022/03/10 07:21:49;;;;;;;17.57;6.83;;;;;;;-6.05;100.00;100412.54;1632309;87;21049;-70
2022/03/10 07:24:16;;;;;;;21.50;8.33;;;;;;;-6.01;100.00;100421.19;1622007;87;21051;-70
2022/03/10 07:26:43;;;;;;;21.33;9.00;;;;;;;-5.91;100.00;100417.27;1625029;87;21550;-70
2022/03/10 07:29:10;;;;;;;18.37;6.93;;;;;;;-5.63;100.00;100410.93;1631280;87;21076;-71
2022/03/10 07:31:37;;;;;;;13.87;6.63;;;;;;;-5.38;100.00;100412.17;1641303;87;21066;-69
2022/03/10 07:34:04;;;;;;;15.20;6.77;;;;;;;-5.32;100.00;100414.55;1645585;87;21065;-70
2022/03/10 07:36:32;;;;;;;11.47;6.00;;;;;;;-5.28;100.00;100416.60;1677748;85;21075;-69
2022/03/10 07:39:00;;;;;;;14.37;6.97;;;;;;;-5.29;100.00;100420.15;1682268;85;21102;-70
2022/03/10 07:41:27;;;;;;;15.40;6.60;;;;;;;-5.19;100.00;100421.06;1655751;85;21031;-70
2022/03/10 07:43:54;;;;;;;18.70;7.70;;;;;;;-5.03;100.00;100421.30;1682146;85;21073;-71
2022/03/10 07:46:28;;;;;;;14.30;6.80;;;;;;;-4.98;100.00;100422.41;1682397;85;21564;-71
2022/03/10 07:48:55;;;;;;;12.70;6.37;;;;;;;-5.02;100.00;100423.00;1682509;85;21499;-70
2022/03/10 07:51:23;;;;;;;17.80;7.77;;;;;;;-5.03;100.00;100430.53;1682339;85;21057;-70
2022/03/10 07:53:50;;;;;;;16.63;6.77;;;;;;;-5.02;100.00;100429.59;1682374;85;21547;-70
2022/03/10 07:56:17;;;;;;;15.67;7.13;;;;;;;-4.97;100.00;100419.72;1682362;85;21054;-70
2022/03/10 07:58:45;;;;;;;17.07;7.57;;;;;;;-5.01;100.00;100421.21;1682323;84;21131;-71
2022/03/10 08:01:13;;;;;;;16.70;6.80;;;;;;;-5.12;100.00;100430.88;1656072;85;21582;-70
2022/03/10 08:03:40;;;;;;;13.60;6.33;;;;;;;-5.22;100.00;100437.00;1682043;85;21077;-70
2022/03/10 08:06:09;;;;;;;13.87;6.27;;;;;;;-5.26;100.00;100430.58;1682301;85;21167;-70
2022/03/10 08:08:37;;;;;;;18.77;8.40;;;;;;;-5.31;100.00;100433.85;1655785;85;21054;-70
2022/03/10 08:11:06;;;;;;;17.87;8.77;;;;;;;-5.20;100.00;100425.92;1682394;85;21034;-71
2022/03/10 08:13:33;;;;;;;23.60;11.00;;;;;;;-5.10;100.00;100435.62;1681687;85;21047;-71
2022/03/10 08:16:01;;;;;;;23.47;12.40;;;;;;;-5.06;100.00;100431.12;1679307;85;21071;-71
2022/03/10 08:18:30;;;;;;;16.77;8.20;;;;;;;-4.98;100.00;100433.81;1669006;85;21068;-70
2022/03/10 08:20:58;;;;;;;17.67;7.90;;;;;;;-5.00;100.00;100436.98;1675325;85;21063;-70
2022/03/10 08:23:26;;;;;;;27.53;12.97;;;;;;;-4.98;100.00;100444.36;1675196;85;20975;-68
2022/03/10 08:25:54;;;;;;;21.77;9.67;;;;;;;-4.86;100.00;100440.37;1688017;85;20991;-70
2022/03/10 08:28:22;;;;;;;18.53;8.20;;;;;;;-4.63;100.00;100434.14;1681153;85;21004;-71
2022/03/10 08:30:49;;;;;;;16.50;6.80;;;;;;;-4.46;100.00;100435.19;1648677;85;21063;-70
2022/03/10 08:33:16;;;;;;;13.67;6.73;;;;;;;-4.40;100.00;100425.70;1676618;85;21537;-70
2022/03/10 08:35:43;;;;;;;16.73;8.03;;;;;;;-4.42;100.00;100436.80;1653734;85;21030;-69
2022/03/10 08:38:11;;;;;;;21.27;10.20;;;;;;;-4.29;100.00;100434.00;1638574;85;21077;-71
2022/03/10 08:40:38;;;;;;;16.90;7.87;;;;;;;-4.20;100.00;100428.78;1659122;85;21105;-69
2022/03/10 08:43:06;;;;;;;17.87;8.17;;;;;;;-4.14;100.00;100437.77;1637953;85;21068;-68
2022/03/10 08:45:34;;;;;;;14.73;6.47;;;;;;;-4.11;100.00;100441.58;1674453;85;21034;-72
2022/03/10 08:48:01;;;;;;;16.13;7.30;;;;;;;-4.01;100.00;100437.60;1654992;85;21062;-71
2022/03/10 08:50:29;;;;;;;13.77;6.33;;;;;;;-3.80;100.00;100420.41;1673088;86;21113;-68
2022/03/10 08:52:56;;;;;;;15.93;7.47;;;;;;;-3.55;100.00;100418.80;1653877;85;21063;-74
2022/03/10 08:55:23;;;;;;;21.80;9.63;;;;;;;-3.51;100.00;100430.08;1674463;85;21023;-69
2022/03/10 08:57:50;;;;;;;16.27;7.13;;;;;;;-3.49;100.00;100429.53;1683188;85;20990;-72
2022/03/10 09:00:18;;;;;;;11.77;6.40;;;;;;;-3.66;100.00;100439.59;1685078;85;21022;-70
2022/03/10 09:02:45;;;;;;;17.33;7.67;;;;;;;-3.79;100.00;100447.67;1685615;85;21054;-70
2022/03/10 09:05:13;;;;;;;16.83;7.20;;;;;;;-3.71;100.00;100450.36;1658864;85;21747;-70
2022/03/10 09:10:10;;;;;;;16.57;7.63;;;;;;;-3.45;100.00;100450.96;1636152;87;21122;-71
2022/03/10 09:12:39;;;;;;;21.37;10.50;;;;;;;-3.30;100.00;100439.64;1637707;88;21081;-71
2022/03/10 09:15:08;;;;;;;28.07;12.50;;;;;;;-3.21;100.00;100446.75;1637557;88;21102;-71
2022/03/10 09:17:34;;;;;;;20.50;8.40;;;;;;;-3.41;100.00;100450.35;1666400;85;21023;-70
2022/03/10 09:20:05;;;;;;;14.87;8.63;;;;;;;-3.81;100.00;100462.27;1667738;86;21059;-70
2022/03/10 09:22:32;;;;;;;17.87;7.83;;;;;;;-4.07;100.00;100462.98;1640431;86;21079;-69
2022/03/10 09:25:02;;;;;;;17.10;8.73;;;;;;;-4.07;100.00;100460.78;1597760;88;21080;-70
2022/03/10 09:27:29;;;;;;;15.03;7.00;;;;;;;-3.92;100.00;100457.47;1608784;88;21076;-71
2022/03/10 09:30:00;;;;;;;14.00;6.60;;;;;;;-3.84;100.00;100448.75;1630901;88;21064;-70
2022/03/10 09:32:36;;;;;;;17.67;7.57;;;;;;;-3.92;100.00;100448.70;1630308;88;21088;-71
2022/03/10 09:35:06;;;;;;;19.20;7.93;;;;;;;-4.13;100.00;100460.59;1628432;88;21060;-71
2022/03/10 09:37:33;;;;;;;21.80;9.67;;;;;;;-4.17;100.00;100455.54;1609744;89;21043;-70
2022/03/10 09:40:00;;;;;;;14.83;6.47;;;;;;;-4.18;100.00;100452.02;1610243;89;21116;-68
2022/03/10 09:42:32;;;;;;;14.60;6.73;;;;;;;-4.10;100.00;100445.95;1610143;89;21142;-72
2022/03/10 09:45:01;;;;;;;14.17;6.70;;;;;;;-4.08;100.00;100442.77;1610258;89;21115;-69
2022/03/10 09:47:31;;;;;;;27.57;12.43;;;;;;;-4.06;100.00;100446.67;1610282;89;21202;-71
2022/03/10 09:49:59;;;;;;;19.63;8.97;;;;;;;-4.07;100.00;100447.14;1594601;89;21563;-71
2022/03/10 09:52:27;;;;;;;16.33;7.03;;;;;;;-4.09;100.00;100446.80;1536039;89;21058;-69
2022/03/10 09:54:54;;;;;;;18.03;8.00;;;;;;;-4.02;100.00;100446.92;1543056;91;21091;-70
2022/03/10 09:57:22;;;;;;;19.47;8.23;;;;;;;-4.08;100.00;100443.23;1565933;89;21143;-73
2022/03/10 09:59:52;;;;;;;21.03;9.63;;;;;;;-4.22;100.00;100449.12;1581819;89;21121;-70
2022/03/10 10:02:19;;;;;;;21.73;9.43;;;;;;;-4.27;100.00;100446.67;1579597;91;21055;-71
2022/03/10 10:04:48;;;;;;;18.93;7.77;;;;;;;-4.21;100.00;100446.89;1584343;89;21139;-72
2022/03/10 10:07:29;;;;;;;21.37;10.60;;;;;;;-4.18;100.00;100440.13;1591112;89;21060;-72
2022/03/10 10:09:57;;;;;;;17.87;8.37;;;;;;;-4.18;100.00;100443.24;1604085;88;21054;-68
2022/03/10 10:12:29;;;;;;;16.50;7.10;;;;;;;-4.21;100.00;100433.69;1608694;88;21507;-71
2022/03/10 10:15:00;;;;;;;21.53;10.23;;;;;;;-4.21;100.00;100433.22;1630036;88;21101;-72
2022/03/10 10:17:32;;;;;;;27.83;13.50;;;;;;;-4.30;100.00;100428.78;1605558;87;21092;-73
2022/03/10 10:20:03;;;;;;;17.23;8.27;;;;;;;-4.31;100.00;100428.41;1573900;91;21559;-70
2022/03/10 10:22:30;;;;;;;17.10;7.57;;;;;;;-4.28;100.00;100421.69;1555145;92;21081;-71
2022/03/10 10:24:59;;;;;;;17.03;7.77;;;;;;;-4.31;100.00;100422.66;1555333;92;21078;-71
2022/03/10 10:27:29;;;;;;;20.60;10.60;;;;;;;-4.34;100.00;100427.22;1555345;92;21539;-73
2022/03/10 10:30:01;;;;;;;23.57;11.85;;;;;;;-4.34;100.00;100423.25;1555687;92;21186;-70
2022/03/10 10:32:33;;;;;;;18.47;10.47;;;;;;;-4.34;100.00;100411.38;1555794;92;21046;-71
2022/03/10 10:35:06;;;;;;;16.20;7.90;;;;;;;-4.40;100.00;100424.38;1619297;88;21631;-71
2022/03/10 10:37:35;;;;;;;17.50;9.13;;;;;;;-4.39;100.00;100423.00;1585166;90;21098;-70
2022/03/10 10:40:04;;;;;;;16.23;8.03;;;;;;;-4.35;100.00;100412.31;1568464;90;21066;-72
2022/03/10 10:42:35;;;;;;;15.47;8.07;;;;;;;-4.39;100.00;100411.59;1589476;90;21109;-70
2022/03/10 10:45:30;;;;;;;21.00;11.20;;;;;;;-4.47;100.00;100411.05;1588973;90;21144;-72
2022/03/10 10:48:11;;;;;;;20.17;10.13;;;;;;;-4.52;100.00;100403.80;1589856;90;21523;-69
2022/03/10 10:50:41;;;;;;;17.87;8.23;;;;;;;-4.68;100.00;100407.55;1589623;90;21058;-71
2022/03/10 10:53:09;;;;;;;20.53;10.07;;;;;;;-4.68;100.00;100398.31;1586857;90;21054;-69
2022/03/10 10:55:41;;;;;;;22.57;9.30;;;;;;;-4.63;100.00;100396.34;1559456;92;21088;-71
2022/03/10 10:58:13;;;;;;;13.77;6.67;;;;;;;-4.55;100.00;100399.96;1580353;91;21132;-71
2022/03/10 11:00:45;;;;;;;20.68;9.85;;;;;;;-4.45;100.00;100398.17;1539917;90;21054;-71
2022/03/10 11:03:32;;;;;;;16.93;8.57;;;;;;;-4.31;100.00;100392.77;1499127;96;21146;-71
2022/03/10 11:05:59;;;;;;;26.63;15.63;;;;;;;-4.17;100.00;100400.92;1485355;95;21086;-71
2022/03/10 11:08:28;;;;;;;16.53;7.70;;;;;;;-4.08;100.00;100391.27;1500545;96;21155;-71
2022/03/10 11:10:55;;;;;;;24.00;13.50;;;;;;;-4.02;100.00;100384.39;1485249;97;21162;-70
2022/03/10 11:13:23;;;;;;;18.70;9.10;;;;;;;-4.05;100.00;100399.05;1446563;98;21169;-70
2022/03/10 11:15:53;;;;;;;16.73;8.57;;;;;;;-4.03;100.00;100402.95;1492367;95;21139;-70
2022/03/10 11:18:23;;;;;;;12.63;6.33;;;;;;;-4.08;100.00;100406.27;1539310;93;21088;-70
2022/03/10 11:21:13;;;;;;;11.30;5.70;;;;;;;-4.16;100.00;100397.38;1539378;93;21111;-70